Etchingham, United Kingdom
Current Conditions -  °F | °C
As of 2:50 PM on Thursday 23 Oct 2014 (Local Time) from EGMD Reporting Station
Light Rain Light Rain  
Wind Chill: 59°   Ceiling: 3000
Heat Index: 59°   Visibility: 4mi
Dew Point: 57°   Wind: 20mph
Humidity: 94%   Direction: 230°SW
Pressure: 30.15"   Gusts: NA
Location:  51.01°N, 0.44°E
Report Text: EGMD 231350Z 23017KT 7000 -RADZ FEW009 SCT013 BKN030 15/14 Q1021
Loading
Personal Weather Stations






























Interactive Weather Map New forecast layout! Learn more

10-Day Weather Forecast

Advertisements
Track Severe Weather on mobile